sensor_id;sensor_type;location;lat;lon;timestamp;pressure;altitude;pressure_sealevel;temperature;humidity
9281;BME280;4679;47.966;7.958;2023-04-01T06:06:27;96011.78;;;8.43;76.85
9281;BME280;4679;47.966;7.958;2023-04-01T06:08:31;95997.25;;;8.46;76.44
9281;BME280;4679;47.966;7.958;2023-04-01T06:10:40;95999.63;;;8.48;76.51
9281;BME280;4679;47.966;7.958;2023-04-01T06:12:58;96003.88;;;8.49;76.17
9281;BME280;4679;47.966;7.958;2023-04-01T06:15:13;96022.91;;;8.51;76.51
9281;BME280;4679;47.966;7.958;2023-04-01T06:17:26;96019.22;;;8.52;76.10
9281;BME280;4679;47.966;7.958;2023-04-01T06:19:40;96021.38;;;8.55;75.95
9281;BME280;4679;47.966;7.958;2023-04-01T06:22:22;96027.44;;;8.55;75.98
9281;BME280;4679;47.966;7.958;2023-04-01T06:24:37;96016.06;;;8.55;75.99
9281;BME280;4679;47.966;7.958;2023-04-01T06:26:48;96007.84;;;8.56;75.85
9281;BME280;4679;47.966;7.958;2023-04-01T06:29:16;96034.28;;;8.56;76.04
9281;BME280;4679;47.966;7.958;2023-04-01T06:31:33;96034.59;;;8.60;75.81
9281;BME280;4679;47.966;7.958;2023-04-01T06:33:49;96020.31;;;8.61;75.59
9281;BME280;4679;47.966;7.958;2023-04-01T06:36:02;96009.22;;;8.64;75.71
9281;BME280;4679;47.966;7.958;2023-04-01T06:38:23;96011.91;;;8.69;75.53
9281;BME280;4679;47.966;7.958;2023-04-01T06:40:51;95996.03;;;8.69;75.49
9281;BME280;4679;47.966;7.958;2023-04-01T06:43:06;96004.78;;;8.69;75.35
9281;BME280;4679;47.966;7.958;2023-04-01T06:45:25;95997.63;;;8.70;75.12
9281;BME280;4679;47.966;7.958;2023-04-01T06:47:36;95994.69;;;8.71;75.37
9281;BME280;4679;47.966;7.958;2023-04-01T06:49:50;95982.81;;;8.74;74.93
9281;BME280;4679;47.966;7.958;2023-04-01T06:52:00;95980.72;;;8.76;74.82
9281;BME280;4679;47.966;7.958;2023-04-01T06:54:09;96004.00;;;8.79;74.79
9281;BME280;4679;47.966;7.958;2023-04-01T06:56:14;96034.69;;;8.80;74.78
9281;BME280;4679;47.966;7.958;2023-04-01T06:58:20;95989.22;;;8.83;74.53
9281;BME280;4679;47.966;7.958;2023-04-01T07:00:29;95996.59;;;8.86;74.81
9281;BME280;4679;47.966;7.958;2023-04-01T07:02:36;95976.50;;;8.90;74.59
9281;BME280;4679;47.966;7.958;2023-04-01T07:04:43;95999.81;;;8.93;74.07
9281;BME280;4679;47.966;7.958;2023-04-01T07:06:48;95975.22;;;8.98;74.46
9281;BME280;4679;47.966;7.958;2023-04-01T07:08:53;95985.00;;;9.02;74.33
9281;BME280;4679;47.966;7.958;2023-04-01T07:11:01;95995.59;;;9.02;73.80
9281;BME280;4679;47.966;7.958;2023-04-01T07:13:06;95991.38;;;9.06;73.90
9281;BME280;4679;47.966;7.958;2023-04-01T07:15:17;95973.38;;;9.08;73.81
9281;BME280;4679;47.966;7.958;2023-04-01T07:17:22;95987.94;;;9.11;73.96
9281;BME280;4679;47.966;7.958;2023-04-01T07:19:31;95981.09;;;9.15;73.92
9281;BME280;4679;47.966;7.958;2023-04-01T07:21:36;96001.72;;;9.18;73.69
9281;BME280;4679;47.966;7.958;2023-04-01T07:23:42;96000.41;;;9.21;73.65
9281;BME280;4679;47.966;7.958;2023-04-01T07:25:48;95993.78;;;9.23;73.73
9281;BME280;4679;47.966;7.958;2023-04-01T07:27:58;96004.66;;;9.27;73.28
9281;BME280;4679;47.966;7.958;2023-04-01T07:30:02;96006.78;;;9.30;73.18
9281;BME280;4679;47.966;7.958;2023-04-01T07:32:15;95991.44;;;9.32;73.25
9281;BME280;4679;47.966;7.958;2023-04-01T07:34:23;95998.81;;;9.35;73.39
9281;BME280;4679;47.966;7.958;2023-04-01T07:36:33;95999.63;;;9.35;73.55
9281;BME280;4679;47.966;7.958;2023-04-01T07:38:49;95996.72;;;9.37;72.98
9281;BME280;4679;47.966;7.958;2023-04-01T07:41:03;96000.97;;;9.38;72.69
9281;BME280;4679;47.966;7.958;2023-04-01T07:43:34;95992.50;;;9.41;73.14
9281;BME280;4679;47.966;7.958;2023-04-01T07:45:43;96020.03;;;9.45;72.50
9281;BME280;4679;47.966;7.958;2023-04-01T07:48:04;95995.94;;;9.46;72.62
9281;BME280;4679;47.966;7.958;2023-04-01T07:50:16;96021.63;;;9.46;73.06
9281;BME280;4679;47.966;7.958;2023-04-01T07:52:24;96027.72;;;9.46;72.89
9281;BME280;4679;47.966;7.958;2023-04-01T07:54:37;96027.97;;;9.45;72.58
9281;BME280;4679;47.966;7.958;2023-04-01T07:56:45;96016.31;;;9.41;73.00
9281;BME280;4679;47.966;7.958;2023-04-01T07:58:59;96018.66;;;9.32;72.69
9281;BME280;4679;47.966;7.958;2023-04-01T08:01:11;96010.22;;;9.25;72.70
9281;BME280;4679;47.966;7.958;2023-04-01T08:03:27;96015.75;;;9.18;72.81
9281;BME280;4679;47.966;7.958;2023-04-01T08:05:39;96029.53;;;9.15;73.21
9281;BME280;4679;47.966;7.958;2023-04-01T08:07:46;96024.47;;;9.14;73.66
9281;BME280;4679;47.966;7.958;2023-04-01T08:09:54;96016.81;;;9.12;73.49
9281;BME280;4679;47.966;7.958;2023-04-01T08:12:09;96030.03;;;9.12;73.41
9281;BME280;4679;47.966;7.958;2023-04-01T08:14:22;96040.88;;;9.11;73.77
9281;BME280;4679;47.966;7.958;2023-04-01T08:16:31;96046.19;;;9.16;73.70
9281;BME280;4679;47.966;7.958;2023-04-01T08:18:42;96034.81;;;9.15;73.43
9281;BME280;4679;47.966;7.958;2023-04-01T08:20:48;96016.78;;;9.17;73.40
9281;BME280;4679;47.966;7.958;2023-04-01T08:22:57;96040.09;;;9.21;73.36
9281;BME280;4679;47.966;7.958;2023-04-01T08:25:02;96048.03;;;9.21;73.10
9281;BME280;4679;47.966;7.958;2023-04-01T08:27:12;96038.25;;;9.21;73.19
9281;BME280;4679;47.966;7.958;2023-04-01T08:29:21;96030.81;;;9.18;73.34
9281;BME280;4679;47.966;7.958;2023-04-01T08:31:30;96038.75;;;9.13;73.14
9281;BME280;4679;47.966;7.958;2023-04-01T08:33:33;96037.94;;;9.07;73.22
9281;BME280;4679;47.966;7.958;2023-04-01T08:35:38;96037.91;;;9.02;73.18
9281;BME280;4679;47.966;7.958;2023-04-01T08:37:43;96027.09;;;8.99;73.60
9281;BME280;4679;47.966;7.958;2023-04-01T08:39:48;96032.38;;;8.99;73.67
9281;BME280;4679;47.966;7.958;2023-04-01T08:44:33;96055.38;;;8.98;73.57
9281;BME280;4679;47.966;7.958;2023-04-01T08:46:56;96054.59;;;9.03;73.45
9281;BME280;4679;47.966;7.958;2023-04-01T08:49:13;96051.19;;;9.07;73.55
9281;BME280;4679;47.966;7.958;2023-04-01T08:51:43;96061.50;;;9.09;73.78
9281;BME280;4679;47.966;7.958;2023-04-01T08:56:18;96049.34;;;9.18;73.26
9281;BME280;4679;47.966;7.958;2023-04-01T09:01:13;96043.28;;;9.33;73.02
9281;BME280;4679;47.966;7.958;2023-04-01T09:03:25;96049.41;;;9.38;72.99
9281;BME280;4679;47.966;7.958;2023-04-01T09:05:56;96050.22;;;9.44;72.26
9281;BME280;4679;47.966;7.958;2023-04-01T09:08:11;96042.81;;;9.51;72.50
9281;BME280;4679;47.966;7.958;2023-04-01T09:10:34;96055.00;;;9.57;72.51
9281;BME280;4679;47.966;7.958;2023-04-01T09:13:01;96048.63;;;9.63;71.90
9281;BME280;4679;47.966;7.958;2023-04-01T09:15:35;96055.53;;;9.64;72.26
9281;BME280;4679;47.966;7.958;2023-04-01T09:18:06;96058.72;;;9.66;71.81
9281;BME280;4679;47.966;7.958;2023-04-01T09:20:23;96051.28;;;9.68;72.81
9281;BME280;4679;47.966;7.958;2023-04-01T09:22:37;96061.63;;;9.70;72.00
9281;BME280;4679;47.966;7.958;2023-04-01T09:25:06;96056.34;;;9.70;72.33
9281;BME280;4679;47.966;7.958;2023-04-01T09:27:25;96060.56;;;9.71;72.09
9281;BME280;4679;47.966;7.958;2023-04-01T09:29:44;96074.34;;;9.73;72.58
9281;BME280;4679;47.966;7.958;2023-04-01T09:32:09;96084.16;;;9.72;71.92
9281;BME280;4679;47.966;7.958;2023-04-01T09:34:52;96071.16;;;9.71;72.01
9281;BME280;4679;47.966;7.958;2023-04-01T09:37:09;96068.53;;;9.71;71.68
9281;BME280;4679;47.966;7.958;2023-04-01T09:39:30;96048.38;;;9.70;71.75
9281;BME280;4679;47.966;7.958;2023-04-01T09:41:42;96073.00;;;9.65;71.42
9281;BME280;4679;47.966;7.958;2023-04-01T09:43:58;96077.78;;;9.63;72.23
9281;BME280;4679;47.966;7.958;2023-04-01T09:46:11;96094.72;;;9.57;72.35
9281;BME280;4679;47.966;7.958;2023-04-01T09:48:29;96089.94;;;9.49;72.38
9281;BME280;4679;47.966;7.958;2023-04-01T09:50:42;96105.81;;;9.44;73.16
9281;BME280;4679;47.966;7.958;2023-04-01T09:52:53;96084.63;;;9.39;72.45
9281;BME280;4679;47.966;7.958;2023-04-01T09:55:06;96080.38;;;9.38;72.69
9281;BME280;4679;47.966;7.958;2023-04-01T09:57:38;96088.06;;;9.39;72.99
9281;BME280;4679;47.966;7.958;2023-04-01T10:00:18;96092.31;;;9.40;73.32
9281;BME280;4679;47.966;7.958;2023-04-01T10:05:17;96097.88;;;9.44;73.13
9281;BME280;4679;47.966;7.958;2023-04-01T10:07:41;96093.63;;;9.48;73.30
9281;BME280;4679;47.966;7.958;2023-04-01T10:12:43;96074.06;;;9.54;73.11
9281;BME280;4679;47.966;7.958;2023-04-01T10:17:53;96086.53;;;9.59;72.61
9281;BME280;4679;47.966;7.958;2023-04-01T10:20:27;96101.59;;;9.63;72.15
9281;BME280;4679;47.966;7.958;2023-04-01T10:23:03;96088.09;;;9.65;72.37
9281;BME280;4679;47.966;7.958;2023-04-01T10:25:19;96084.13;;;9.67;71.65
9281;BME280;4679;47.966;7.958;2023-04-01T10:27:34;96098.19;;;9.68;71.67
9281;BME280;4679;47.966;7.958;2023-04-01T10:35:34;96084.94;;;9.73;71.58
9281;BME280;4679;47.966;7.958;2023-04-01T10:40:34;96089.94;;;9.64;71.89
9281;BME280;4679;47.966;7.958;2023-04-01T10:45:45;96105.31;;;9.47;71.84
9281;BME280;4679;47.966;7.958;2023-04-01T10:48:15;96097.06;;;9.38;72.87
9281;BME280;4679;47.966;7.958;2023-04-01T10:50:25;96106.56;;;9.29;72.22
9281;BME280;4679;47.966;7.958;2023-04-01T10:55:31;96115.50;;;9.18;72.93
9281;BME280;4679;47.966;7.958;2023-04-01T10:57:54;96094.09;;;9.14;73.03
9281;BME280;4679;47.966;7.958;2023-04-01T11:00:25;96110.97;;;9.08;73.45
9281;BME280;4679;47.966;7.958;2023-04-01T11:02:53;96115.47;;;9.08;72.99
9281;BME280;4679;47.966;7.958;2023-04-01T11:08:09;96110.97;;;9.08;72.80
9281;BME280;4679;47.966;7.958;2023-04-01T11:15:45;96131.88;;;9.05;73.49
9281;BME280;4679;47.966;7.958;2023-04-01T11:18:25;96114.13;;;9.05;73.44
9281;BME280;4679;47.966;7.958;2023-04-01T11:20:43;96122.63;;;9.07;73.24
9281;BME280;4679;47.966;7.958;2023-04-01T11:23:07;96121.81;;;9.07;73.59
9281;BME280;4679;47.966;7.958;2023-04-01T11:25:49;96118.13;;;9.08;73.30
9281;BME280;4679;47.966;7.958;2023-04-01T11:28:14;96115.47;;;9.08;73.77
9281;BME280;4679;47.966;7.958;2023-04-01T11:30:31;96141.16;;;9.07;73.56
9281;BME280;4679;47.966;7.958;2023-04-01T11:32:52;96135.84;;;9.07;73.54
9281;BME280;4679;47.966;7.958;2023-04-01T11:35:08;96145.59;;;9.02;73.71
9281;BME280;4679;47.966;7.958;2023-04-01T11:37:23;96147.16;;;8.93;73.75
9281;BME280;4679;47.966;7.958;2023-04-01T11:39:32;96145.78;;;8.80;73.71
9281;BME280;4679;47.966;7.958;2023-04-01T11:41:40;96153.91;;;8.73;73.93
9281;BME280;4679;47.966;7.958;2023-04-01T11:43:52;96168.97;;;8.68;74.49
9281;BME280;4679;47.966;7.958;2023-04-01T11:46:03;96146.97;;;8.62;74.52
9281;BME280;4679;47.966;7.958;2023-04-01T11:48:19;96149.31;;;8.59;74.76
9281;BME280;4679;47.966;7.958;2023-04-01T11:50:34;96134.25;;;8.59;74.53
9281;BME280;4679;47.966;7.958;2023-04-01T11:53:00;96151.72;;;8.60;74.60
9281;BME280;4679;47.966;7.958;2023-04-01T11:55:18;96136.69;;;8.66;74.73
9281;BME280;4679;47.966;7.958;2023-04-01T11:57:40;96144.63;;;8.71;74.69
9281;BME280;4679;47.966;7.958;2023-04-01T12:00:00;96136.19;;;8.74;74.70
9281;BME280;4679;47.966;7.958;2023-04-01T12:02:11;96147.88;;;8.78;74.77
9281;BME280;4679;47.966;7.958;2023-04-01T12:04:34;96146.06;;;8.84;74.52
9281;BME280;4679;47.966;7.958;2023-04-01T12:06:41;96124.38;;;8.87;74.22
9281;BME280;4679;47.966;7.958;2023-04-01T12:08:52;96148.22;;;8.92;74.39
9281;BME280;4679;47.966;7.958;2023-04-01T12:11:00;96135.00;;;8.97;74.62
9281;BME280;4679;47.966;7.958;2023-04-01T12:13:16;96142.97;;;9.02;74.85
9281;BME280;4679;47.966;7.958;2023-04-01T12:15:30;96133.75;;;9.09;74.28
9281;BME280;4679;47.966;7.958;2023-04-01T12:17:42;96143.31;;;9.15;74.33
9281;BME280;4679;47.966;7.958;2023-04-01T12:22:08;96151.03;;;9.32;74.10
9281;BME280;4679;47.966;7.958;2023-04-01T12:24:25;96147.63;;;9.37;74.03
9281;BME280;4679;47.966;7.958;2023-04-01T12:26:41;96141.81;;;9.40;73.73
9281;BME280;4679;47.966;7.958;2023-04-01T12:28:59;96151.38;;;9.46;73.21
9281;BME280;4679;47.966;7.958;2023-04-01T12:31:18;96135.19;;;9.47;73.49
9281;BME280;4679;47.966;7.958;2023-04-01T12:33:33;96159.81;;;9.48;73.43
9281;BME280;4679;47.966;7.958;2023-04-01T12:35:49;96138.13;;;9.51;73.11
9281;BME280;4679;47.966;7.958;2023-04-01T12:38:10;96126.50;;;9.57;73.06
9281;BME280;4679;47.966;7.958;2023-04-01T12:40:44;96131.03;;;9.62;73.07
9281;BME280;4679;47.966;7.958;2023-04-01T12:42:59;96153.53;;;9.64;73.34
9281;BME280;4679;47.966;7.958;2023-04-01T12:45:27;96153.53;;;9.69;73.16
9281;BME280;4679;47.966;7.958;2023-04-01T12:50:40;96129.72;;;9.79;72.13
9281;BME280;4679;47.966;7.958;2023-04-01T12:52:58;96147.75;;;9.82;73.00
9281;BME280;4679;47.966;7.958;2023-04-01T12:55:27;96140.31;;;9.84;72.70
9281;BME280;4679;47.966;7.958;2023-04-01T12:57:52;96153.31;;;9.86;72.54
9281;BME280;4679;47.966;7.958;2023-04-01T13:00:28;96144.81;;;9.84;71.98
9281;BME280;4679;47.966;7.958;2023-04-01T13:02:41;96140.56;;;9.78;72.41
9281;BME280;4679;47.966;7.958;2023-04-01T13:05:09;96141.91;;;9.75;72.33
9281;BME280;4679;47.966;7.958;2023-04-01T13:07:23;96138.72;;;9.73;72.25
9281;BME280;4679;47.966;7.958;2023-04-01T13:09:38;96132.63;;;9.73;72.93
9281;BME280;4679;47.966;7.958;2023-04-01T13:11:57;96138.22;;;9.76;72.78
9281;BME280;4679;47.966;7.958;2023-04-01T13:14:29;96152.25;;;9.82;72.15
9281;BME280;4679;47.966;7.958;2023-04-01T13:16:37;96138.22;;;9.86;72.64
9281;BME280;4679;47.966;7.958;2023-04-01T13:18:53;96142.47;;;9.93;72.54
9281;BME280;4679;47.966;7.958;2023-04-01T13:21:05;96140.06;;;9.96;72.06
9281;BME280;4679;47.966;7.958;2023-04-01T13:23:21;96145.38;;;10.01;72.49
9281;BME280;4679;47.966;7.958;2023-04-01T13:25:32;96153.63;;;10.05;71.94
9281;BME280;4679;47.966;7.958;2023-04-01T13:27:40;96156.50;;;10.08;71.64
9281;BME280;4679;47.966;7.958;2023-04-01T13:29:47;96152.28;;;10.12;71.97
9281;BME280;4679;47.966;7.958;2023-04-01T13:32:01;96153.34;;;10.16;72.27
9281;BME280;4679;47.966;7.958;2023-04-01T13:34:16;96148.88;;;10.22;71.61
9281;BME280;4679;47.966;7.958;2023-04-01T13:36:26;96149.94;;;10.26;71.51
9281;BME280;4679;47.966;7.958;2023-04-01T13:38:48;96142.50;;;10.28;70.93
9281;BME280;4679;47.966;7.958;2023-04-01T13:41:01;96132.19;;;10.32;71.80
9281;BME280;4679;47.966;7.958;2023-04-01T13:43:16;96129.53;;;10.37;71.19
9281;BME280;4679;47.966;7.958;2023-04-01T13:45:23;96133.50;;;10.44;70.44
9281;BME280;4679;47.966;7.958;2023-04-01T13:47:40;96131.91;;;10.53;71.40
9281;BME280;4679;47.966;7.958;2023-04-01T13:50:04;96125.78;;;10.63;70.80
9281;BME280;4679;47.966;7.958;2023-04-01T13:52:20;96126.56;;;10.74;71.31
9281;BME280;4679;47.966;7.958;2023-04-01T13:54:38;96120.19;;;10.80;70.04
9281;BME280;4679;47.966;7.958;2023-04-01T13:56:50;96117.22;;;10.91;70.27
9281;BME280;4679;47.966;7.958;2023-04-01T13:59:11;96119.56;;;11.03;70.25
9281;BME280;4679;47.966;7.958;2023-04-01T14:01:28;96116.38;;;11.11;69.83
9281;BME280;4679;47.966;7.958;2023-04-01T14:06:19;96120.19;;;11.49;69.15
9281;BME280;4679;47.966;7.958;2023-04-01T14:08:36;96118.78;;;11.62;68.39
9281;BME280;4679;47.966;7.958;2023-04-01T14:10:44;96106.06;;;11.59;68.67
9281;BME280;4679;47.966;7.958;2023-04-01T14:12:56;96102.34;;;11.55;68.09
9281;BME280;4679;47.966;7.958;2023-04-01T14:15:15;96111.66;;;11.52;68.10
9281;BME280;4679;47.966;7.958;2023-04-01T14:17:39;96102.25;;;11.75;68.30
9281;BME280;4679;47.966;7.958;2023-04-01T14:20:18;96091.03;;;11.83;67.50
9281;BME280;4679;47.966;7.958;2023-04-01T14:22:32;96093.94;;;11.87;67.61
9281;BME280;4679;47.966;7.958;2023-04-01T14:24:56;96086.44;;;11.94;67.55
9281;BME280;4679;47.966;7.958;2023-04-01T14:27:30;96101.44;;;11.80;68.21
9281;BME280;4679;47.966;7.958;2023-04-01T14:29:43;96094.28;;;11.70;67.67
9281;BME280;4679;47.966;7.958;2023-04-01T14:32:02;96093.28;;;11.61;68.60
9281;BME280;4679;47.966;7.958;2023-04-01T14:34:19;96101.84;;;11.53;67.59
9281;BME280;4679;47.966;7.958;2023-04-01T14:36:34;96114.13;;;11.39;68.31
9281;BME280;4679;47.966;7.958;2023-04-01T14:38:47;96121.16;;;11.09;69.16
9281;BME280;4679;47.966;7.958;2023-04-01T14:41:02;96126.81;;;10.72;69.64
9281;BME280;4679;47.966;7.958;2023-04-01T14:43:18;96152.31;;;10.43;70.72
9281;BME280;4679;47.966;7.958;2023-04-01T14:45:34;96153.06;;;10.13;70.81
9281;BME280;4679;47.966;7.958;2023-04-01T14:47:47;96126.53;;;9.82;71.38
9281;BME280;4679;47.966;7.958;2023-04-01T14:49:53;96128.09;;;9.63;71.40
9281;BME280;4679;47.966;7.958;2023-04-01T14:52:04;96127.06;;;9.69;72.00
9281;BME280;4679;47.966;7.958;2023-04-01T14:54:13;96131.31;;;9.80;71.79
9281;BME280;4679;47.966;7.958;2023-04-01T14:56:39;96128.97;;;10.04;70.82
9281;BME280;4679;47.966;7.958;2023-04-01T14:58:45;96135.63;;;10.27;70.61
9281;BME280;4679;47.966;7.958;2023-04-01T15:01:06;96134.81;;;10.52;71.39
9281;BME280;4679;47.966;7.958;2023-04-01T15:03:16;96126.28;;;10.75;70.19
9281;BME280;4679;47.966;7.958;2023-04-01T15:05:27;96138.97;;;10.99;69.96
9281;BME280;4679;47.966;7.958;2023-04-01T15:07:49;96135.50;;;11.08;69.12
9281;BME280;4679;47.966;7.958;2023-04-01T15:10:03;96129.38;;;11.13;70.40
9281;BME280;4679;47.966;7.958;2023-04-01T15:12:17;96136.22;;;11.24;70.20
9281;BME280;4679;47.966;7.958;2023-04-01T15:14:35;96139.16;;;11.27;69.26
9281;BME280;4679;47.966;7.958;2023-04-01T15:16:47;96133.78;;;11.33;69.59
9281;BME280;4679;47.966;7.958;2023-04-01T15:19:05;96144.94;;;11.35;69.94
9281;BME280;4679;47.966;7.958;2023-04-01T15:21:18;96136.69;;;11.41;69.51
9281;BME280;4679;47.966;7.958;2023-04-01T15:23:31;96140.69;;;11.39;70.02
9281;BME280;4679;47.966;7.958;2023-04-01T15:25:49;96136.97;;;11.35;70.54
9281;BME280;4679;47.966;7.958;2023-04-01T15:27:58;96136.19;;;11.34;70.36
9281;BME280;4679;47.966;7.958;2023-04-01T15:30:20;96131.13;;;11.38;69.49
9281;BME280;4679;47.966;7.958;2023-04-01T15:32:28;96136.97;;;11.35;69.95
9281;BME280;4679;47.966;7.958;2023-04-01T15:34:40;96134.38;;;11.24;70.01
9281;BME280;4679;47.966;7.958;2023-04-01T15:36:52;96134.09;;;11.26;70.01
9281;BME280;4679;47.966;7.958;2023-04-01T15:39:00;96146.06;;;11.18;69.89
9281;BME280;4679;47.966;7.958;2023-04-01T15:41:14;96137.63;;;11.01;70.56
9281;BME280;4679;47.966;7.958;2023-04-01T15:43:27;96139.25;;;10.92;70.70
9281;BME280;4679;47.966;7.958;2023-04-01T15:45:43;96150.94;;;10.86;70.89
9281;BME280;4679;47.966;7.958;2023-04-01T15:47:57;96152.28;;;10.83;70.14
9281;BME280;4679;47.966;7.958;2023-04-01T15:53:00;96148.06;;;10.67;71.26
9281;BME280;4679;47.966;7.958;2023-04-01T15:55:24;96152.84;;;10.60;71.43
9281;BME280;4679;47.966;7.958;2023-04-01T15:57:32;96156.28;;;10.55;71.13
9281;BME280;4679;47.966;7.958;2023-04-01T15:59:51;96156.03;;;10.52;70.21
9281;BME280;4679;47.966;7.958;2023-04-01T16:01:59;96155.25;;;10.51;71.20
9281;BME280;4679;47.966;7.958;2023-04-01T16:04:17;96165.59;;;10.48;70.77
9281;BME280;4679;47.966;7.958;2023-04-01T16:06:48;96151.00;;;10.45;69.91
9281;BME280;4679;47.966;7.958;2023-04-01T16:09:23;96159.75;;;10.41;70.06
9281;BME280;4679;47.966;7.958;2023-04-01T16:11:34;96161.88;;;10.39;71.03
9281;BME280;4679;47.966;7.958;2023-04-01T16:13:48;96166.63;;;10.42;70.33
9281;BME280;4679;47.966;7.958;2023-04-01T16:15:59;96165.59;;;10.48;70.94
9281;BME280;4679;47.966;7.958;2023-04-01T16:18:16;96166.91;;;10.55;69.41
9281;BME280;4679;47.966;7.958;2023-04-01T16:20:40;96170.59;;;10.60;70.25
9281;BME280;4679;47.966;7.958;2023-04-01T16:22:49;96162.13;;;10.68;70.06
9281;BME280;4679;47.966;7.958;2023-04-01T16:25:13;96164.50;;;10.74;69.84
9281;BME280;4679;47.966;7.958;2023-04-01T16:27:19;96156.78;;;10.78;70.13
9281;BME280;4679;47.966;7.958;2023-04-01T16:29:30;96156.78;;;10.83;70.03
9281;BME280;4679;47.966;7.958;2023-04-01T16:31:42;96158.91;;;10.81;69.90
9281;BME280;4679;47.966;7.958;2023-04-01T16:33:48;96165.56;;;10.73;70.06
9281;BME280;4679;47.966;7.958;2023-04-01T16:35:55;96174.31;;;10.64;69.54
9281;BME280;4679;47.966;7.958;2023-04-01T16:38:05;96166.63;;;10.57;69.33
9281;BME280;4679;47.966;7.958;2023-04-01T16:40:20;96172.50;;;10.54;70.59
9281;BME280;4679;47.966;7.958;2023-04-01T16:42:34;96175.16;;;10.54;70.36
9281;BME280;4679;47.966;7.958;2023-04-01T16:44:48;96178.31;;;10.56;70.32
9281;BME280;4679;47.966;7.958;2023-04-01T16:46:53;96172.19;;;10.55;70.87
9281;BME280;4679;47.966;7.958;2023-04-01T16:48:59;96172.19;;;10.55;70.18
9281;BME280;4679;47.966;7.958;2023-04-01T16:51:04;96174.06;;;10.55;70.80
9281;BME280;4679;47.966;7.958;2023-04-01T16:53:17;96182.81;;;10.55;69.80
9281;BME280;4679;47.966;7.958;2023-04-01T16:55:22;96176.97;;;10.58;70.59
9281;BME280;4679;47.966;7.958;2023-04-01T16:57:30;96184.13;;;10.58;70.00
9281;BME280;4679;47.966;7.958;2023-04-01T16:59:38;96177.50;;;10.55;69.43
9281;BME280;4679;47.966;7.958;2023-04-01T17:01:44;96185.47;;;10.50;70.43
9281;BME280;4679;47.966;7.958;2023-04-01T17:03:52;96180.19;;;10.50;70.78
9281;BME280;4679;47.966;7.958;2023-04-01T17:06:12;96190.00;;;10.50;69.44
9281;BME280;4679;47.966;7.958;2023-04-01T17:08:24;96190.78;;;10.50;70.61
9281;BME280;4679;47.966;7.958;2023-04-01T17:10:42;96179.63;;;10.48;70.30
9281;BME280;4679;47.966;7.958;2023-04-01T17:12:51;96184.94;;;10.48;70.07
9281;BME280;4679;47.966;7.958;2023-04-01T17:15:02;96180.16;;;10.45;70.36
9281;BME280;4679;47.966;7.958;2023-04-01T17:17:19;96179.63;;;10.43;70.68
9281;BME280;4679;47.966;7.958;2023-04-01T17:19:37;96172.72;;;10.42;70.18
9281;BME280;4679;47.966;7.958;2023-04-01T17:21:49;96173.53;;;10.43;70.83
9281;BME280;4679;47.966;7.958;2023-04-01T17:24:04;96173.53;;;10.43;70.55
9281;BME280;4679;47.966;7.958;2023-04-01T17:26:25;96176.44;;;10.41;70.73
9281;BME280;4679;47.966;7.958;2023-04-01T17:28:37;96178.56;;;10.39;70.63
9281;BME280;4679;47.966;7.958;2023-04-01T17:30:49;96187.59;;;10.38;69.67
9281;BME280;4679;47.966;7.958;2023-04-01T17:33:10;96187.31;;;10.40;69.71
9281;BME280;4679;47.966;7.958;2023-04-01T17:35:19;96195.03;;;10.36;70.86
9281;BME280;4679;47.966;7.958;2023-04-01T17:37:37;96194.50;;;10.34;70.83
9281;BME280;4679;47.966;7.958;2023-04-01T17:39:54;96189.72;;;10.31;71.16
9281;BME280;4679;47.966;7.958;2023-04-01T17:42:05;96187.31;;;10.30;70.72
9281;BME280;4679;47.966;7.958;2023-04-01T17:44:18;96193.94;;;10.27;71.06
9281;BME280;4679;47.966;7.958;2023-04-01T17:46:32;96201.34;;;10.25;70.54
9281;BME280;4679;47.966;7.958;2023-04-01T17:48:43;96195.56;;;10.23;70.64
9281;BME280;4679;47.966;7.958;2023-04-01T17:50:55;96200.56;;;10.19;70.18
9281;BME280;4679;47.966;7.958;2023-04-01T17:53:11;96200.78;;;10.13;71.47
9281;BME280;4679;47.966;7.958;2023-04-01T17:55:30;96203.97;;;10.10;70.46
9281;BME280;4679;47.966;7.958;2023-04-01T17:57:46;96198.16;;;10.08;70.70
9281;BME280;4679;47.966;7.958;2023-04-01T17:59:52;96196.81;;;10.05;70.87
9281;BME280;4679;47.966;7.958;2023-04-01T18:02:02;96200.25;;;10.01;70.46
9281;BME280;4679;47.966;7.958;2023-04-01T18:04:18;96207.66;;;9.99;71.09
9281;BME280;4679;47.966;7.958;2023-04-01T18:06:31;96211.09;;;9.94;71.31
9281;BME280;4679;47.966;7.958;2023-04-01T18:08:56;96207.94;;;9.92;70.68
9281;BME280;4679;47.966;7.958;2023-04-01T18:11:06;96212.69;;;9.90;70.55
9281;BME280;4679;47.966;7.958;2023-04-01T18:13:36;96208.44;;;9.89;70.72
9281;BME280;4679;47.966;7.958;2023-04-01T18:15:46;96215.06;;;9.86;70.60
9281;BME280;4679;47.966;7.958;2023-04-01T18:18:00;96209.72;;;9.81;70.41
9281;BME280;4679;47.966;7.958;2023-04-01T18:20:31;96212.38;;;9.76;71.14
9281;BME280;4679;47.966;7.958;2023-04-01T18:22:40;96222.94;;;9.71;70.07
9281;BME280;4679;47.966;7.958;2023-04-01T18:24:45;96218.41;;;9.67;70.37
9281;BME280;4679;47.966;7.958;2023-04-01T18:27:01;96217.88;;;9.65;70.35
9281;BME280;4679;47.966;7.958;2023-04-01T18:29:13;96228.47;;;9.65;70.70
9281;BME280;4679;47.966;7.958;2023-04-01T18:31:21;96228.75;;;9.68;70.38
9281;BME280;4679;47.966;7.958;2023-04-01T18:33:29;96226.88;;;9.64;70.00
9281;BME280;4679;47.966;7.958;2023-04-01T18:35:46;96236.69;;;9.58;69.97
9281;BME280;4679;47.966;7.958;2023-04-01T18:37:54;96234.28;;;9.57;70.33
9281;BME280;4679;47.966;7.958;2023-04-01T18:40:03;96245.13;;;9.55;70.29
9281;BME280;4679;47.966;7.958;2023-04-01T18:42:16;96245.91;;;9.50;69.95
9281;BME280;4679;47.966;7.958;2023-04-01T18:44:34;96252.00;;;9.51;70.38
9281;BME280;4679;47.966;7.958;2023-04-01T18:46:41;96244.03;;;9.51;70.13
9281;BME280;4679;47.966;7.958;2023-04-01T18:48:51;96256.50;;;9.50;69.73
9281;BME280;4679;47.966;7.958;2023-04-01T18:50:57;96257.28;;;9.51;69.65
9281;BME280;4679;47.966;7.958;2023-04-01T18:53:12;96261.56;;;9.57;70.14
9281;BME280;4679;47.966;7.958;2023-04-01T18:55:29;96265.00;;;9.58;69.50
9281;BME280;4679;47.966;7.958;2023-04-01T18:57:40;96266.81;;;9.52;69.75
9281;BME280;4679;47.966;7.958;2023-04-01T18:59:48;96266.81;;;9.47;69.91
9281;BME280;4679;47.966;7.958;2023-04-01T19:02:00;96272.88;;;9.47;69.90
9281;BME280;4679;47.966;7.958;2023-04-01T19:04:10;96261.25;;;9.48;69.42
9281;BME280;4679;47.966;7.958;2023-04-01T19:06:22;96271.03;;;9.43;69.77
9281;BME280;4679;47.966;7.958;2023-04-01T19:08:27;96271.25;;;9.36;70.36
9281;BME280;4679;47.966;7.958;2023-04-01T19:10:37;96284.97;;;9.33;70.32
9281;BME280;4679;47.966;7.958;2023-04-01T19:12:49;96284.47;;;9.31;70.56
9281;BME280;4679;47.966;7.958;2023-04-01T19:15:24;96281.75;;;9.21;70.39
9281;BME280;4679;47.966;7.958;2023-04-01T19:17:41;96287.28;;;9.14;70.34